sensor_id;sensor_type;location;lat;lon;timestamp;P1;durP1;ratioP1;P2;durP2;ratioP2
33184;SDS011;19550;42.872;25.494;2023-04-23T00:01:04;20.25;;;10.07;;
33184;SDS011;19550;42.872;25.494;2023-04-23T00:03:32;18.80;;;9.82;;
33184;SDS011;19550;42.872;25.494;2023-04-23T00:06:03;16.52;;;10.35;;
33184;SDS011;19550;42.872;25.494;2023-04-23T00:08:33;18.13;;;10.25;;
33184;SDS011;19550;42.872;25.494;2023-04-23T00:11:00;16.08;;;9.70;;
33184;SDS011;19550;42.872;25.494;2023-04-23T00:13:27;14.85;;;9.55;;
33184;SDS011;19550;42.872;25.494;2023-04-23T00:15:54;16.02;;;9.07;;
33184;SDS011;19550;42.872;25.494;2023-04-23T00:18:21;16.75;;;8.88;;
33184;SDS011;19550;42.872;25.494;2023-04-23T00:20:48;14.65;;;9.00;;
33184;SDS011;19550;42.872;25.494;2023-04-23T00:23:17;15.80;;;9.82;;
33184;SDS011;19550;42.872;25.494;2023-04-23T00:25:44;13.70;;;9.23;;
33184;SDS011;19550;42.872;25.494;2023-04-23T00:28:10;16.42;;;9.85;;
33184;SDS011;19550;42.872;25.494;2023-04-23T00:30:37;19.45;;;9.52;;
33184;SDS011;19550;42.872;25.494;2023-04-23T00:33:04;15.95;;;9.20;;
33184;SDS011;19550;42.872;25.494;2023-04-23T00:35:31;15.52;;;9.25;;
33184;SDS011;19550;42.872;25.494;2023-04-23T00:37:58;16.23;;;8.80;;
33184;SDS011;19550;42.872;25.494;2023-04-23T00:40:26;18.17;;;9.07;;
33184;SDS011;19550;42.872;25.494;2023-04-23T00:42:53;13.63;;;9.20;;
33184;SDS011;19550;42.872;25.494;2023-04-23T00:45:22;17.48;;;9.05;;
33184;SDS011;19550;42.872;25.494;2023-04-23T00:47:49;16.70;;;9.30;;
33184;SDS011;19550;42.872;25.494;2023-04-23T00:50:16;15.85;;;9.32;;
33184;SDS011;19550;42.872;25.494;2023-04-23T00:52:43;17.73;;;10.45;;
33184;SDS011;19550;42.872;25.494;2023-04-23T00:55:09;16.00;;;9.70;;
33184;SDS011;19550;42.872;25.494;2023-04-23T00:57:38;15.65;;;9.02;;
33184;SDS011;19550;42.872;25.494;2023-04-23T01:00:05;13.65;;;7.78;;
33184;SDS011;19550;42.872;25.494;2023-04-23T01:02:33;13.82;;;8.48;;
33184;SDS011;19550;42.872;25.494;2023-04-23T01:05:02;19.27;;;9.18;;
33184;SDS011;19550;42.872;25.494;2023-04-23T01:07:30;15.18;;;8.75;;
33184;SDS011;19550;42.872;25.494;2023-04-23T01:10:00;14.35;;;8.43;;
33184;SDS011;19550;42.872;25.494;2023-04-23T01:12:27;12.63;;;8.02;;
33184;SDS011;19550;42.872;25.494;2023-04-23T01:14:55;14.20;;;8.55;;
33184;SDS011;19550;42.872;25.494;2023-04-23T01:17:22;18.77;;;7.90;;
33184;SDS011;19550;42.872;25.494;2023-04-23T01:19:50;17.08;;;8.45;;
33184;SDS011;19550;42.872;25.494;2023-04-23T01:22:19;15.68;;;8.25;;
33184;SDS011;19550;42.872;25.494;2023-04-23T01:24:46;12.35;;;8.52;;
33184;SDS011;19550;42.872;25.494;2023-04-23T01:27:14;11.50;;;7.25;;
33184;SDS011;19550;42.872;25.494;2023-04-23T01:29:44;19.05;;;7.60;;
33184;SDS011;19550;42.872;25.494;2023-04-23T01:32:12;16.20;;;8.00;;
33184;SDS011;19550;42.872;25.494;2023-04-23T01:34:40;14.95;;;8.20;;
33184;SDS011;19550;42.872;25.494;2023-04-23T01:37:07;12.70;;;8.40;;
33184;SDS011;19550;42.872;25.494;2023-04-23T01:39:36;13.88;;;7.72;;
33184;SDS011;19550;42.872;25.494;2023-04-23T01:42:03;11.63;;;8.23;;
33184;SDS011;19550;42.872;25.494;2023-04-23T01:44:32;11.90;;;7.55;;
33184;SDS011;19550;42.872;25.494;2023-04-23T01:46:59;15.55;;;7.75;;
33184;SDS011;19550;42.872;25.494;2023-04-23T01:49:26;15.80;;;7.75;;
33184;SDS011;19550;42.872;25.494;2023-04-23T01:51:53;13.77;;;8.60;;
33184;SDS011;19550;42.872;25.494;2023-04-23T01:54:20;11.15;;;7.50;;
33184;SDS011;19550;42.872;25.494;2023-04-23T01:56:48;14.32;;;8.43;;
33184;SDS011;19550;42.872;25.494;2023-04-23T01:59:19;15.70;;;8.15;;
33184;SDS011;19550;42.872;25.494;2023-04-23T02:01:46;15.88;;;8.00;;
33184;SDS011;19550;42.872;25.494;2023-04-23T02:04:14;11.23;;;7.38;;
33184;SDS011;19550;42.872;25.494;2023-04-23T02:06:43;12.00;;;7.80;;
33184;SDS011;19550;42.872;25.494;2023-04-23T02:09:11;14.35;;;7.75;;
33184;SDS011;19550;42.872;25.494;2023-04-23T02:11:38;15.27;;;7.70;;
33184;SDS011;19550;42.872;25.494;2023-04-23T02:14:07;10.57;;;7.47;;
33184;SDS011;19550;42.872;25.494;2023-04-23T02:16:34;18.75;;;8.05;;
33184;SDS011;19550;42.872;25.494;2023-04-23T02:19:01;16.73;;;8.43;;
33184;SDS011;19550;42.872;25.494;2023-04-23T02:21:28;19.35;;;7.85;;
33184;SDS011;19550;42.872;25.494;2023-04-23T02:23:55;13.07;;;7.85;;
33184;SDS011;19550;42.872;25.494;2023-04-23T02:26:21;14.35;;;7.90;;
33184;SDS011;19550;42.872;25.494;2023-04-23T02:28:49;23.77;;;7.43;;
33184;SDS011;19550;42.872;25.494;2023-04-23T02:31:17;14.25;;;8.30;;
33184;SDS011;19550;42.872;25.494;2023-04-23T02:33:44;11.98;;;7.80;;
33184;SDS011;19550;42.872;25.494;2023-04-23T02:36:11;14.60;;;8.18;;
33184;SDS011;19550;42.872;25.494;2023-04-23T02:38:38;14.85;;;8.20;;
33184;SDS011;19550;42.872;25.494;2023-04-23T02:41:06;13.85;;;7.03;;
33184;SDS011;19550;42.872;25.494;2023-04-23T02:43:33;15.52;;;7.28;;
33184;SDS011;19550;42.872;25.494;2023-04-23T02:46:00;16.45;;;9.00;;
33184;SDS011;19550;42.872;25.494;2023-04-23T02:48:34;14.20;;;8.15;;
33184;SDS011;19550;42.872;25.494;2023-04-23T02:51:02;12.13;;;6.93;;
33184;SDS011;19550;42.872;25.494;2023-04-23T02:53:30;15.68;;;8.45;;
33184;SDS011;19550;42.872;25.494;2023-04-23T02:55:57;12.32;;;7.75;;
33184;SDS011;19550;42.872;25.494;2023-04-23T02:58:25;15.45;;;9.13;;
33184;SDS011;19550;42.872;25.494;2023-04-23T03:00:52;24.65;;;12.50;;
33184;SDS011;19550;42.872;25.494;2023-04-23T03:03:19;15.75;;;8.77;;
33184;SDS011;19550;42.872;25.494;2023-04-23T03:05:47;16.70;;;8.00;;
33184;SDS011;19550;42.872;25.494;2023-04-23T03:08:14;11.77;;;7.93;;
33184;SDS011;19550;42.872;25.494;2023-04-23T03:10:41;11.85;;;8.23;;
33184;SDS011;19550;42.872;25.494;2023-04-23T03:13:08;11.90;;;7.18;;
33184;SDS011;19550;42.872;25.494;2023-04-23T03:15:35;23.15;;;9.25;;
33184;SDS011;19550;42.872;25.494;2023-04-23T03:18:02;15.50;;;8.23;;
33184;SDS011;19550;42.872;25.494;2023-04-23T03:20:32;17.00;;;8.63;;
33184;SDS011;19550;42.872;25.494;2023-04-23T03:23:00;15.63;;;8.63;;
33184;SDS011;19550;42.872;25.494;2023-04-23T03:25:27;16.52;;;8.52;;
33184;SDS011;19550;42.872;25.494;2023-04-23T03:27:54;18.92;;;9.73;;
33184;SDS011;19550;42.872;25.494;2023-04-23T03:30:21;13.10;;;8.93;;
33184;SDS011;19550;42.872;25.494;2023-04-23T03:32:48;31.65;;;16.95;;
33184;SDS011;19550;42.872;25.494;2023-04-23T03:35:15;23.60;;;13.45;;
33184;SDS011;19550;42.872;25.494;2023-04-23T03:37:42;14.55;;;9.02;;
33184;SDS011;19550;42.872;25.494;2023-04-23T03:40:10;13.35;;;8.38;;
33184;SDS011;19550;42.872;25.494;2023-04-23T03:42:37;15.52;;;9.68;;
33184;SDS011;19550;42.872;25.494;2023-04-23T03:45:05;17.77;;;10.95;;
33184;SDS011;19550;42.872;25.494;2023-04-23T03:47:32;100.25;;;48.08;;
33184;SDS011;19550;42.872;25.494;2023-04-23T03:50:00;40.40;;;20.48;;
33184;SDS011;19550;42.872;25.494;2023-04-23T03:52:28;37.22;;;18.33;;
33184;SDS011;19550;42.872;25.494;2023-04-23T03:54:55;24.13;;;16.05;;
33184;SDS011;19550;42.872;25.494;2023-04-23T03:57:23;19.38;;;10.90;;
33184;SDS011;19550;42.872;25.494;2023-04-23T03:59:50;51.55;;;35.28;;
33184;SDS011;19550;42.872;25.494;2023-04-23T04:02:18;22.65;;;15.00;;
33184;SDS011;19550;42.872;25.494;2023-04-23T04:04:45;14.40;;;9.32;;
33184;SDS011;19550;42.872;25.494;2023-04-23T04:07:13;22.13;;;13.35;;
33184;SDS011;19550;42.872;25.494;2023-04-23T04:09:40;28.63;;;18.20;;
33184;SDS011;19550;42.872;25.494;2023-04-23T04:12:07;17.05;;;11.00;;
33184;SDS011;19550;42.872;25.494;2023-04-23T04:14:35;16.05;;;10.80;;
33184;SDS011;19550;42.872;25.494;2023-04-23T04:17:02;20.10;;;11.57;;
33184;SDS011;19550;42.872;25.494;2023-04-23T04:19:29;19.83;;;12.90;;
33184;SDS011;19550;42.872;25.494;2023-04-23T04:21:57;23.70;;;13.25;;
33184;SDS011;19550;42.872;25.494;2023-04-23T04:24:24;24.67;;;15.38;;
33184;SDS011;19550;42.872;25.494;2023-04-23T04:26:51;23.08;;;12.35;;
33184;SDS011;19550;42.872;25.494;2023-04-23T04:29:18;18.58;;;11.35;;
33184;SDS011;19550;42.872;25.494;2023-04-23T04:31:46;22.63;;;12.63;;
33184;SDS011;19550;42.872;25.494;2023-04-23T04:34:13;20.08;;;11.10;;
33184;SDS011;19550;42.872;25.494;2023-04-23T04:36:42;18.80;;;11.05;;
33184;SDS011;19550;42.872;25.494;2023-04-23T04:39:08;23.02;;;11.50;;
33184;SDS011;19550;42.872;25.494;2023-04-23T04:41:37;16.88;;;11.05;;
33184;SDS011;19550;42.872;25.494;2023-04-23T04:44:04;22.17;;;11.18;;
33184;SDS011;19550;42.872;25.494;2023-04-23T04:46:32;14.73;;;11.27;;
33184;SDS011;19550;42.872;25.494;2023-04-23T04:49:06;21.25;;;11.65;;
33184;SDS011;19550;42.872;25.494;2023-04-23T04:51:33;17.27;;;11.00;;
33184;SDS011;19550;42.872;25.494;2023-04-23T04:54:00;18.85;;;12.20;;
33184;SDS011;19550;42.872;25.494;2023-04-23T04:56:27;17.73;;;10.57;;
33184;SDS011;19550;42.872;25.494;2023-04-23T04:58:53;19.63;;;11.00;;
33184;SDS011;19550;42.872;25.494;2023-04-23T05:01:20;19.88;;;12.88;;
33184;SDS011;19550;42.872;25.494;2023-04-23T05:03:48;20.35;;;12.15;;
33184;SDS011;19550;42.872;25.494;2023-04-23T05:06:17;24.95;;;15.00;;
33184;SDS011;19550;42.872;25.494;2023-04-23T05:08:44;31.73;;;16.40;;
33184;SDS011;19550;42.872;25.494;2023-04-23T05:11:12;24.63;;;15.05;;
33184;SDS011;19550;42.872;25.494;2023-04-23T05:13:39;24.02;;;15.88;;
33184;SDS011;19550;42.872;25.494;2023-04-23T05:16:06;22.83;;;15.10;;
33184;SDS011;19550;42.872;25.494;2023-04-23T05:18:33;21.63;;;13.50;;
33184;SDS011;19550;42.872;25.494;2023-04-23T05:21:00;23.80;;;14.10;;
33184;SDS011;19550;42.872;25.494;2023-04-23T05:23:28;29.45;;;14.75;;
33184;SDS011;19550;42.872;25.494;2023-04-23T05:25:55;31.00;;;14.65;;
33184;SDS011;19550;42.872;25.494;2023-04-23T05:28:23;26.85;;;14.40;;
33184;SDS011;19550;42.872;25.494;2023-04-23T05:30:50;24.50;;;14.68;;
33184;SDS011;19550;42.872;25.494;2023-04-23T05:33:17;22.77;;;14.13;;
33184;SDS011;19550;42.872;25.494;2023-04-23T05:35:44;22.35;;;13.77;;
33184;SDS011;19550;42.872;25.494;2023-04-23T05:38:11;20.85;;;14.20;;
33184;SDS011;19550;42.872;25.494;2023-04-23T05:40:39;23.20;;;14.10;;
33184;SDS011;19550;42.872;25.494;2023-04-23T05:43:06;22.00;;;14.05;;
33184;SDS011;19550;42.872;25.494;2023-04-23T05:45:32;23.65;;;16.05;;
33184;SDS011;19550;42.872;25.494;2023-04-23T05:47:59;30.02;;;15.70;;
33184;SDS011;19550;42.872;25.494;2023-04-23T05:50:26;27.05;;;16.83;;
33184;SDS011;19550;42.872;25.494;2023-04-23T05:52:53;36.22;;;19.98;;
33184;SDS011;19550;42.872;25.494;2023-04-23T05:55:20;35.38;;;22.50;;
33184;SDS011;19550;42.872;25.494;2023-04-23T05:57:49;32.00;;;20.52;;
33184;SDS011;19550;42.872;25.494;2023-04-23T06:00:16;38.08;;;19.75;;
33184;SDS011;19550;42.872;25.494;2023-04-23T06:02:43;28.20;;;18.33;;
33184;SDS011;19550;42.872;25.494;2023-04-23T06:05:10;36.30;;;20.77;;
33184;SDS011;19550;42.872;25.494;2023-04-23T06:07:37;32.55;;;19.40;;
33184;SDS011;19550;42.872;25.494;2023-04-23T06:10:05;39.67;;;19.90;;
33184;SDS011;19550;42.872;25.494;2023-04-23T06:12:33;31.63;;;21.20;;
33184;SDS011;19550;42.872;25.494;2023-04-23T06:15:05;31.40;;;20.50;;
33184;SDS011;19550;42.872;25.494;2023-04-23T06:17:33;33.03;;;21.15;;
33184;SDS011;19550;42.872;25.494;2023-04-23T06:20:00;31.45;;;20.27;;
33184;SDS011;19550;42.872;25.494;2023-04-23T06:22:29;38.45;;;21.92;;
33184;SDS011;19550;42.872;25.494;2023-04-23T06:24:56;38.38;;;22.45;;
33184;SDS011;19550;42.872;25.494;2023-04-23T06:27:23;44.38;;;25.98;;
33184;SDS011;19550;42.872;25.494;2023-04-23T06:29:51;39.55;;;25.40;;
33184;SDS011;19550;42.872;25.494;2023-04-23T06:32:20;39.13;;;25.77;;
33184;SDS011;19550;42.872;25.494;2023-04-23T06:34:47;43.83;;;27.10;;
33184;SDS011;19550;42.872;25.494;2023-04-23T06:37:14;40.90;;;26.02;;
33184;SDS011;19550;42.872;25.494;2023-04-23T06:39:40;52.15;;;26.05;;
33184;SDS011;19550;42.872;25.494;2023-04-23T06:42:07;57.53;;;30.90;;
33184;SDS011;19550;42.872;25.494;2023-04-23T06:44:34;37.42;;;23.73;;
33184;SDS011;19550;42.872;25.494;2023-04-23T06:47:01;36.38;;;23.30;;
33184;SDS011;19550;42.872;25.494;2023-04-23T06:49:29;35.78;;;22.30;;
33184;SDS011;19550;42.872;25.494;2023-04-23T06:51:56;36.10;;;21.52;;
33184;SDS011;19550;42.872;25.494;2023-04-23T06:54:23;25.88;;;17.40;;
33184;SDS011;19550;42.872;25.494;2023-04-23T06:56:50;25.13;;;12.85;;
33184;SDS011;19550;42.872;25.494;2023-04-23T06:59:16;20.48;;;11.10;;
33184;SDS011;19550;42.872;25.494;2023-04-23T07:01:44;15.13;;;8.50;;
33184;SDS011;19550;42.872;25.494;2023-04-23T07:04:11;15.43;;;9.20;;
33184;SDS011;19550;42.872;25.494;2023-04-23T07:06:39;16.52;;;8.15;;
33184;SDS011;19550;42.872;25.494;2023-04-23T07:09:06;12.73;;;7.97;;
33184;SDS011;19550;42.872;25.494;2023-04-23T07:11:33;17.38;;;8.10;;
33184;SDS011;19550;42.872;25.494;2023-04-23T07:14:01;14.65;;;8.70;;
33184;SDS011;19550;42.872;25.494;2023-04-23T07:16:28;19.17;;;8.10;;
33184;SDS011;19550;42.872;25.494;2023-04-23T07:18:57;13.90;;;8.30;;
33184;SDS011;19550;42.872;25.494;2023-04-23T07:21:25;19.75;;;8.80;;
33184;SDS011;19550;42.872;25.494;2023-04-23T07:23:54;12.35;;;7.05;;
33184;SDS011;19550;42.872;25.494;2023-04-23T07:26:22;11.10;;;6.68;;
33184;SDS011;19550;42.872;25.494;2023-04-23T07:28:49;15.27;;;7.20;;
33184;SDS011;19550;42.872;25.494;2023-04-23T07:31:16;10.05;;;5.43;;
33184;SDS011;19550;42.872;25.494;2023-04-23T07:33:43;13.00;;;5.25;;
33184;SDS011;19550;42.872;25.494;2023-04-23T07:36:10;15.88;;;5.18;;
33184;SDS011;19550;42.872;25.494;2023-04-23T07:38:37;10.40;;;5.78;;
33184;SDS011;19550;42.872;25.494;2023-04-23T07:41:05;15.20;;;4.78;;
33184;SDS011;19550;42.872;25.494;2023-04-23T07:43:32;11.20;;;4.90;;
33184;SDS011;19550;42.872;25.494;2023-04-23T07:45:59;14.63;;;5.82;;
33184;SDS011;19550;42.872;25.494;2023-04-23T07:48:26;9.75;;;4.63;;
33184;SDS011;19550;42.872;25.494;2023-04-23T07:50:52;10.50;;;4.90;;
33184;SDS011;19550;42.872;25.494;2023-04-23T07:53:20;9.13;;;3.90;;
33184;SDS011;19550;42.872;25.494;2023-04-23T07:55:46;12.38;;;4.15;;
33184;SDS011;19550;42.872;25.494;2023-04-23T07:58:15;8.60;;;4.43;;
33184;SDS011;19550;42.872;25.494;2023-04-23T08:00:41;11.23;;;4.22;;
33184;SDS011;19550;42.872;25.494;2023-04-23T08:03:08;10.10;;;4.05;;
33184;SDS011;19550;42.872;25.494;2023-04-23T08:05:35;7.97;;;3.33;;
33184;SDS011;19550;42.872;25.494;2023-04-23T08:08:03;5.80;;;3.80;;
33184;SDS011;19550;42.872;25.494;2023-04-23T08:10:30;12.65;;;3.55;;
33184;SDS011;19550;42.872;25.494;2023-04-23T08:12:57;7.68;;;3.22;;
33184;SDS011;19550;42.872;25.494;2023-04-23T08:15:25;13.63;;;3.78;;
33184;SDS011;19550;42.872;25.494;2023-04-23T08:17:52;9.13;;;4.57;;
33184;SDS011;19550;42.872;25.494;2023-04-23T08:20:19;14.00;;;4.22;;
33184;SDS011;19550;42.872;25.494;2023-04-23T08:22:46;9.82;;;3.60;;
33184;SDS011;19550;42.872;25.494;2023-04-23T08:25:14;7.18;;;3.17;;
33184;SDS011;19550;42.872;25.494;2023-04-23T08:27:41;10.32;;;3.65;;
33184;SDS011;19550;42.872;25.494;2023-04-23T08:30:08;11.30;;;4.10;;
33184;SDS011;19550;42.872;25.494;2023-04-23T08:32:37;12.07;;;4.05;;
33184;SDS011;19550;42.872;25.494;2023-04-23T08:35:04;8.80;;;3.95;;
33184;SDS011;19550;42.872;25.494;2023-04-23T08:37:32;6.85;;;3.50;;
33184;SDS011;19550;42.872;25.494;2023-04-23T08:39:59;12.50;;;3.80;;
33184;SDS011;19550;42.872;25.494;2023-04-23T08:42:28;9.07;;;4.45;;
33184;SDS011;19550;42.872;25.494;2023-04-23T08:45:02;10.57;;;3.47;;
33184;SDS011;19550;42.872;25.494;2023-04-23T08:47:30;8.95;;;4.20;;
33184;SDS011;19550;42.872;25.494;2023-04-23T08:49:59;12.02;;;3.80;;
33184;SDS011;19550;42.872;25.494;2023-04-23T08:52:28;8.77;;;4.00;;
33184;SDS011;19550;42.872;25.494;2023-04-23T08:55:00;9.60;;;3.60;;
33184;SDS011;19550;42.872;25.494;2023-04-23T08:59:56;7.05;;;3.15;;
33184;SDS011;19550;42.872;25.494;2023-04-23T09:02:24;5.82;;;3.28;;
33184;SDS011;19550;42.872;25.494;2023-04-23T09:04:51;7.75;;;3.50;;
33184;SDS011;19550;42.872;25.494;2023-04-23T09:07:20;9.32;;;3.65;;
33184;SDS011;19550;42.872;25.494;2023-04-23T09:09:48;9.93;;;3.35;;
33184;SDS011;19550;42.872;25.494;2023-04-23T09:12:15;13.00;;;3.80;;
33184;SDS011;19550;42.872;25.494;2023-04-23T09:14:42;8.00;;;3.03;;
33184;SDS011;19550;42.872;25.494;2023-04-23T09:17:09;9.88;;;3.95;;
33184;SDS011;19550;42.872;25.494;2023-04-23T09:19:36;9.85;;;3.33;;
33184;SDS011;19550;42.872;25.494;2023-04-23T09:22:05;10.50;;;4.07;;
33184;SDS011;19550;42.872;25.494;2023-04-23T09:24:34;8.25;;;3.38;;
33184;SDS011;19550;42.872;25.494;2023-04-23T09:27:01;4.95;;;3.20;;
33184;SDS011;19550;42.872;25.494;2023-04-23T09:29:29;5.55;;;2.85;;
33184;SDS011;19550;42.872;25.494;2023-04-23T09:32:05;8.82;;;3.35;;
33184;SDS011;19550;42.872;25.494;2023-04-23T09:34:33;10.70;;;3.75;;
33184;SDS011;19550;42.872;25.494;2023-04-23T09:37:01;6.35;;;3.58;;
33184;SDS011;19550;42.872;25.494;2023-04-23T09:39:32;9.15;;;3.08;;
33184;SDS011;19550;42.872;25.494;2023-04-23T09:42:03;6.03;;;3.38;;
33184;SDS011;19550;42.872;25.494;2023-04-23T09:44:32;5.18;;;3.10;;
33184;SDS011;19550;42.872;25.494;2023-04-23T09:47:04;8.10;;;3.20;;
33184;SDS011;19550;42.872;25.494;2023-04-23T09:49:43;7.03;;;3.00;;
33184;SDS011;19550;42.872;25.494;2023-04-23T09:52:11;9.27;;;3.70;;
33184;SDS011;19550;42.872;25.494;2023-04-23T09:54:38;6.93;;;3.33;;
33184;SDS011;19550;42.872;25.494;2023-04-23T09:57:06;12.70;;;2.90;;
33184;SDS011;19550;42.872;25.494;2023-04-23T09:59:33;10.00;;;3.55;;
33184;SDS011;19550;42.872;25.494;2023-04-23T10:02:04;8.05;;;3.58;;
33184;SDS011;19550;42.872;25.494;2023-04-23T10:04:32;5.75;;;3.55;;
33184;SDS011;19550;42.872;25.494;2023-04-23T10:07:00;13.50;;;3.85;;
33184;SDS011;19550;42.872;25.494;2023-04-23T10:09:29;6.35;;;3.30;;
33184;SDS011;19550;42.872;25.494;2023-04-23T10:11:58;7.20;;;3.50;;
33184;SDS011;19550;42.872;25.494;2023-04-23T10:14:28;4.55;;;3.00;;
33184;SDS011;19550;42.872;25.494;2023-04-23T10:16:56;7.25;;;3.00;;
33184;SDS011;19550;42.872;25.494;2023-04-23T10:19:24;8.43;;;3.50;;
33184;SDS011;19550;42.872;25.494;2023-04-23T10:21:53;7.85;;;4.05;;
33184;SDS011;19550;42.872;25.494;2023-04-23T10:24:22;6.63;;;4.03;;
33184;SDS011;19550;42.872;25.494;2023-04-23T10:26:52;11.27;;;4.60;;
33184;SDS011;19550;42.872;25.494;2023-04-23T10:29:29;8.57;;;4.18;;
33184;SDS011;19550;42.872;25.494;2023-04-23T10:31:58;7.15;;;4.30;;
33184;SDS011;19550;42.872;25.494;2023-04-23T10:34:26;14.43;;;4.50;;
33184;SDS011;19550;42.872;25.494;2023-04-23T10:36:54;11.43;;;4.47;;
33184;SDS011;19550;42.872;25.494;2023-04-23T10:39:21;6.28;;;4.60;;
33184;SDS011;19550;42.872;25.494;2023-04-23T10:41:50;12.68;;;4.07;;
33184;SDS011;19550;42.872;25.494;2023-04-23T10:44:18;9.05;;;4.38;;
33184;SDS011;19550;42.872;25.494;2023-04-23T10:46:51;8.77;;;4.10;;
33184;SDS011;19550;42.872;25.494;2023-04-23T10:49:21;11.60;;;4.72;;
33184;SDS011;19550;42.872;25.494;2023-04-23T10:51:54;10.07;;;4.03;;
33184;SDS011;19550;42.872;25.494;2023-04-23T10:54:27;7.05;;;3.63;;
33184;SDS011;19550;42.872;25.494;2023-04-23T10:56:57;7.95;;;3.72;;
33184;SDS011;19550;42.872;25.494;2023-04-23T10:59:27;10.63;;;4.15;;
33184;SDS011;19550;42.872;25.494;2023-04-23T11:02:04;9.20;;;3.95;;
33184;SDS011;19550;42.872;25.494;2023-04-23T11:04:33;10.23;;;4.40;;
33184;SDS011;19550;42.872;25.494;2023-04-23T11:07:05;9.13;;;5.43;;
33184;SDS011;19550;42.872;25.494;2023-04-23T11:09:36;8.13;;;3.67;;
33184;SDS011;19550;42.872;25.494;2023-04-23T11:12:07;13.02;;;3.90;;
33184;SDS011;19550;42.872;25.494;2023-04-23T11:14:40;10.02;;;3.95;;
33184;SDS011;19550;42.872;25.494;2023-04-23T11:17:11;12.75;;;3.90;;
33184;SDS011;19550;42.872;25.494;2023-04-23T11:19:38;14.15;;;4.15;;
33184;SDS011;19550;42.872;25.494;2023-04-23T11:22:06;9.80;;;4.10;;
33184;SDS011;19550;42.872;25.494;2023-04-23T11:24:39;7.43;;;4.00;;
33184;SDS011;19550;42.872;25.494;2023-04-23T11:27:07;10.20;;;5.35;;
33184;SDS011;19550;42.872;25.494;2023-04-23T11:29:36;9.77;;;5.40;;
33184;SDS011;19550;42.872;25.494;2023-04-23T11:32:04;6.88;;;3.90;;
33184;SDS011;19550;42.872;25.494;2023-04-23T11:34:36;9.52;;;4.15;;
33184;SDS011;19550;42.872;25.494;2023-04-23T11:37:05;3.83;;;3.30;;
33184;SDS011;19550;42.872;25.494;2023-04-23T11:39:34;6.45;;;4.40;;
33184;SDS011;19550;42.872;25.494;2023-04-23T11:42:01;5.75;;;3.80;;
33184;SDS011;19550;42.872;25.494;2023-04-23T11:44:29;8.77;;;4.28;;
33184;SDS011;19550;42.872;25.494;2023-04-23T11:46:58;8.77;;;4.15;;
33184;SDS011;19550;42.872;25.494;2023-04-23T11:49:26;6.90;;;3.80;;
33184;SDS011;19550;42.872;25.494;2023-04-23T11:51:54;6.38;;;3.90;;
33184;SDS011;19550;42.872;25.494;2023-04-23T11:54:24;9.30;;;4.05;;
33184;SDS011;19550;42.872;25.494;2023-04-23T11:56:53;12.55;;;3.67;;
33184;SDS011;19550;42.872;25.494;2023-04-23T11:59:20;8.68;;;3.75;;
33184;SDS011;19550;42.872;25.494;2023-04-23T12:01:48;5.72;;;4.47;;
33184;SDS011;19550;42.872;25.494;2023-04-23T12:04:20;8.90;;;4.38;;
33184;SDS011;19550;42.872;25.494;2023-04-23T12:06:48;6.07;;;3.53;;
33184;SDS011;19550;42.872;25.494;2023-04-23T12:09:17;13.27;;;7.50;;
33184;SDS011;19550;42.872;25.494;2023-04-23T12:11:45;7.13;;;3.50;;
33184;SDS011;19550;42.872;25.494;2023-04-23T12:14:15;7.38;;;4.50;;
33184;SDS011;19550;42.872;25.494;2023-04-23T12:19:17;9.15;;;4.68;;
33184;SDS011;19550;42.872;25.494;2023-04-23T12:21:48;12.15;;;4.07;;
33184;SDS011;19550;42.872;25.494;2023-04-23T12:24:20;9.13;;;4.35;;
33184;SDS011;19550;42.872;25.494;2023-04-23T12:26:48;5.10;;;3.83;;
33184;SDS011;19550;42.872;25.494;2023-04-23T12:29:18;9.40;;;4.15;;
33184;SDS011;19550;42.872;25.494;2023-04-23T12:31:46;10.80;;;4.03;;
33184;SDS011;19550;42.872;25.494;2023-04-23T12:34:14;8.10;;;3.92;;
33184;SDS011;19550;42.872;25.494;2023-04-23T12:36:43;7.25;;;3.50;;
33184;SDS011;19550;42.872;25.494;2023-04-23T12:39:19;7.63;;;3.20;;
33184;SDS011;19550;42.872;25.494;2023-04-23T12:41:49;9.75;;;3.70;;
33184;SDS011;19550;42.872;25.494;2023-04-23T12:44:17;66.22;;;35.53;;
33184;SDS011;19550;42.872;25.494;2023-04-23T12:46:44;10.10;;;4.45;;
33184;SDS011;19550;42.872;25.494;2023-04-23T12:49:11;9.90;;;3.72;;
33184;SDS011;19550;42.872;25.494;2023-04-23T12:51:37;7.75;;;4.15;;
33184;SDS011;19550;42.872;25.494;2023-04-23T12:54:04;6.93;;;3.75;;
33184;SDS011;19550;42.872;25.494;2023-04-23T12:56:32;10.65;;;3.70;;
33184;SDS011;19550;42.872;25.494;2023-04-23T12:59:00;6.28;;;3.70;;
33184;SDS011;19550;42.872;25.494;2023-04-23T13:01:29;9.18;;;4.40;;
33184;SDS011;19550;42.872;25.494;2023-04-23T13:03:56;7.25;;;3.67;;
33184;SDS011;19550;42.872;25.494;2023-04-23T13:06:23;9.45;;;5.28;;
33184;SDS011;19550;42.872;25.494;2023-04-23T13:08:50;20.30;;;9.32;;
33184;SDS011;19550;42.872;25.494;2023-04-23T13:11:18;13.07;;;5.47;;
33184;SDS011;19550;42.872;25.494;2023-04-23T13:13:46;12.43;;;6.55;;
33184;SDS011;19550;42.872;25.494;2023-04-23T13:16:13;11.57;;;5.35;;
33184;SDS011;19550;42.872;25.494;2023-04-23T13:18:40;9.63;;;4.88;;
33184;SDS011;19550;42.872;25.494;2023-04-23T13:21:08;9.68;;;5.10;;
33184;SDS011;19550;42.872;25.494;2023-04-23T13:23:35;7.47;;;4.30;;
33184;SDS011;19550;42.872;25.494;2023-04-23T13:26:02;17.50;;;6.75;;
33184;SDS011;19550;42.872;25.494;2023-04-23T13:28:30;12.00;;;5.88;;
33184;SDS011;19550;42.872;25.494;2023-04-23T13:30:58;9.00;;;4.90;;
33184;SDS011;19550;42.872;25.494;2023-04-23T13:33:25;11.20;;;5.20;;
33184;SDS011;19550;42.872;25.494;2023-04-23T13:35:52;7.40;;;4.78;;
33184;SDS011;19550;42.872;25.494;2023-04-23T13:38:20;11.82;;;6.03;;
33184;SDS011;19550;42.872;25.494;2023-04-23T13:40:47;14.25;;;6.10;;
33184;SDS011;19550;42.872;25.494;2023-04-23T13:43:14;8.90;;;5.93;;
33184;SDS011;19550;42.872;25.494;2023-04-23T13:45:41;12.48;;;8.40;;
33184;SDS011;19550;42.872;25.494;2023-04-23T13:48:09;12.38;;;6.82;;
33184;SDS011;19550;42.872;25.494;2023-04-23T13:50:36;11.43;;;6.65;;
33184;SDS011;19550;42.872;25.494;2023-04-23T13:53:03;12.38;;;6.00;;
33184;SDS011;19550;42.872;25.494;2023-04-23T13:55:30;12.10;;;5.97;;
33184;SDS011;19550;42.872;25.494;2023-04-23T13:57:57;7.07;;;4.10;;
33184;SDS011;19550;42.872;25.494;2023-04-23T14:00:25;8.70;;;5.22;;
33184;SDS011;19550;42.872;25.494;2023-04-23T14:02:53;10.63;;;4.82;;
33184;SDS011;19550;42.872;25.494;2023-04-23T14:05:21;10.77;;;6.53;;
33184;SDS011;19550;42.872;25.494;2023-04-23T14:07:48;10.30;;;6.25;;
33184;SDS011;19550;42.872;25.494;2023-04-23T14:10:15;12.30;;;6.57;;
33184;SDS011;19550;42.872;25.494;2023-04-23T14:12:43;6.60;;;3.40;;
33184;SDS011;19550;42.872;25.494;2023-04-23T14:15:10;7.22;;;5.32;;
33184;SDS011;19550;42.872;25.494;2023-04-23T14:17:37;13.93;;;8.43;;
33184;SDS011;19550;42.872;25.494;2023-04-23T14:20:05;15.38;;;9.38;;
33184;SDS011;19550;42.872;25.494;2023-04-23T14:22:34;39.72;;;20.17;;
33184;SDS011;19550;42.872;25.494;2023-04-23T14:25:02;148.95;;;81.03;;
33184;SDS011;19550;42.872;25.494;2023-04-23T14:27:33;17.25;;;12.15;;
33184;SDS011;19550;42.872;25.494;2023-04-23T14:30:06;25.00;;;19.13;;